createdAt,value
2018-02-05T00:00:43.755Z,0.70
2018-02-05T00:03:11.221Z,0.70
2018-02-05T00:05:39.409Z,0.70
2018-02-05T00:08:06.861Z,0.70
2018-02-05T00:10:34.280Z,0.70
2018-02-05T00:13:02.496Z,0.60
2018-02-05T00:15:29.932Z,0.60
2018-02-05T00:17:57.382Z,0.50
2018-02-05T00:20:24.819Z,0.50
2018-02-05T00:22:52.252Z,0.60
2018-02-05T00:25:19.704Z,0.50
2018-02-05T00:27:47.149Z,0.50
2018-02-05T00:30:14.575Z,0.50
2018-02-05T00:32:42.036Z,0.50
2018-02-05T00:35:09.488Z,0.60
2018-02-05T00:37:40.922Z,0.70
2018-02-05T00:40:09.137Z,0.70
2018-02-05T00:42:36.572Z,0.70
2018-02-05T00:45:04.025Z,0.80
2018-02-05T00:47:31.465Z,0.80
2018-02-05T00:49:59.685Z,0.80
2018-02-05T00:52:27.134Z,0.80
2018-02-05T00:54:54.580Z,0.80
2018-02-05T00:57:22.013Z,0.80
2018-02-05T00:59:50.226Z,0.80
2018-02-05T01:02:17.672Z,0.80
2018-02-05T01:04:45.117Z,0.80
2018-02-05T01:07:12.681Z,0.80
2018-02-05T01:09:40.119Z,0.90
2018-02-05T01:12:08.388Z,0.90
2018-02-05T01:14:35.828Z,0.90
2018-02-05T01:17:03.272Z,0.90
2018-02-05T01:19:30.726Z,0.80
2018-02-05T01:21:58.163Z,0.80
2018-02-05T01:24:25.608Z,0.80
2018-02-05T01:26:53.048Z,0.80
2018-02-05T01:29:20.503Z,0.80
2018-02-05T01:31:47.949Z,0.90
2018-02-05T01:34:16.166Z,0.90
2018-02-05T01:36:43.613Z,0.90
2018-02-05T01:39:11.057Z,0.90
2018-02-05T01:41:38.494Z,1.00
2018-02-05T01:44:06.701Z,1.00
2018-02-05T01:46:34.132Z,1.00
2018-02-05T01:49:02.355Z,1.00
2018-02-05T01:51:29.803Z,1.00
2018-02-05T01:53:57.280Z,1.00
2018-02-05T01:56:25.701Z,1.10
2018-02-05T01:58:53.904Z,1.10
2018-02-05T02:01:21.352Z,1.10
2018-02-05T02:03:48.780Z,1.20
2018-02-05T02:06:16.997Z,1.20
2018-02-05T02:08:44.490Z,1.20
2018-02-05T02:11:11.944Z,1.20
2018-02-05T02:13:39.375Z,1.10
2018-02-05T02:16:06.839Z,1.10
2018-02-05T02:18:34.277Z,1.10
2018-02-05T02:21:01.751Z,1.10
2018-02-05T02:23:29.168Z,1.00
2018-02-05T02:25:57.655Z,1.10
2018-02-05T02:28:25.071Z,1.10
2018-02-05T02:30:52.522Z,1.10
2018-02-05T02:33:19.966Z,1.20
2018-02-05T02:35:47.408Z,1.20
2018-02-05T02:38:14.842Z,1.20
2018-02-05T02:40:42.284Z,1.20
2018-02-05T02:43:10.496Z,1.20
2018-02-05T02:45:37.961Z,1.20
2018-02-05T02:48:05.407Z,1.30
2018-02-05T02:50:32.849Z,1.20
2018-02-05T02:53:00.283Z,1.10
2018-02-05T02:55:28.511Z,1.20
2018-02-05T02:57:55.951Z,1.10
2018-02-05T03:00:23.404Z,1.20
2018-02-05T03:02:50.848Z,1.20
2018-02-05T03:05:18.310Z,1.10
2018-02-05T03:07:46.510Z,0.90
2018-02-05T03:10:13.961Z,0.90
2018-02-05T03:12:41.395Z,1.00
2018-02-05T03:15:08.870Z,1.00
2018-02-05T03:17:37.059Z,1.10
2018-02-05T03:20:04.521Z,1.00
2018-02-05T03:22:31.960Z,1.00
2018-02-05T03:24:59.419Z,1.00
2018-02-05T03:27:26.861Z,0.90
2018-02-05T03:29:54.303Z,0.90
2018-02-05T03:32:22.516Z,0.80
2018-02-05T03:34:49.962Z,0.80
2018-02-05T03:37:17.397Z,0.80
2018-02-05T03:39:45.620Z,0.90
2018-02-05T03:42:13.058Z,0.90
2018-02-05T03:44:40.593Z,1.00
2018-02-05T03:47:08.031Z,0.90
2018-02-05T03:49:35.476Z,1.00
2018-02-05T03:52:02.925Z,1.00
2018-02-05T03:54:31.433Z,1.00
2018-02-05T03:56:59.650Z,1.00
2018-02-05T03:59:27.090Z,1.00
2018-02-05T04:01:55.556Z,1.00
2018-02-05T04:04:23.782Z,1.10
2018-02-05T04:06:56.940Z,1.10
2018-02-05T04:09:27.644Z,1.10
2018-02-05T04:11:55.937Z,1.00
2018-02-05T04:14:24.143Z,1.10
2018-02-05T04:16:56.888Z,1.10
2018-02-05T04:19:25.097Z,1.00
2018-02-05T04:21:52.536Z,1.00
2018-02-05T04:24:19.992Z,1.00
2018-02-05T04:26:47.431Z,1.00
2018-02-05T04:29:15.645Z,0.90
2018-02-05T04:31:43.084Z,0.90
2018-02-05T04:34:10.525Z,0.90
2018-02-05T04:36:38.739Z,0.90
2018-02-05T04:39:06.177Z,0.90
2018-02-05T04:41:33.619Z,0.90
2018-02-05T04:44:01.495Z,0.80
2018-02-05T04:46:28.917Z,0.70
2018-02-05T04:48:56.356Z,0.70
2018-02-05T04:51:23.804Z,0.70
2018-02-05T04:53:51.256Z,0.60
2018-02-05T04:56:18.867Z,0.50
2018-02-05T04:58:47.076Z,0.40
2018-02-05T05:01:14.520Z,0.40
2018-02-05T05:03:41.969Z,0.40
2018-02-05T05:06:10.173Z,0.10
2018-02-05T05:08:37.690Z,0.10
2018-02-05T05:11:05.920Z,0.10
2018-02-05T05:13:33.358Z,0.10
2018-02-05T05:16:04.702Z,0.10
2018-02-05T05:18:32.139Z,0.10
2018-02-05T05:20:59.569Z,0.10
2018-02-05T05:23:27.025Z,0.10
2018-02-05T05:25:54.487Z,0.10
2018-02-05T05:28:21.924Z,0.10
2018-02-05T05:30:49.367Z,0.10
2018-02-05T05:33:16.817Z,0.10
2018-02-05T05:35:44.340Z,0.10
2018-02-05T05:38:11.885Z,0.10
2018-02-05T05:40:40.094Z,0.00
2018-02-05T05:43:07.535Z,0.00
2018-02-05T05:45:34.992Z,-0.20
2018-02-05T05:48:02.439Z,-0.20
2018-02-05T05:50:29.884Z,-0.30
2018-02-05T05:52:58.088Z,-0.50
2018-02-05T05:55:25.536Z,-0.50
2018-02-05T05:57:52.993Z,-0.50
2018-02-05T06:00:20.437Z,-0.60
2018-02-05T06:02:48.692Z,-0.60
2018-02-05T06:05:16.124Z,-0.60
2018-02-05T06:07:43.636Z,-0.50
2018-02-05T06:10:11.072Z,-0.50
2018-02-05T06:12:38.516Z,-0.60
2018-02-05T06:15:05.952Z,-0.60
2018-02-05T06:17:34.165Z,-0.70
2018-02-05T06:20:02.380Z,-0.70
2018-02-05T06:22:29.829Z,-0.70
2018-02-05T06:24:57.301Z,-0.80
2018-02-05T06:27:24.751Z,-0.70
2018-02-05T06:29:52.281Z,-0.70
2018-02-05T06:32:20.500Z,-0.80
2018-02-05T06:34:48.016Z,-0.80
2018-02-05T06:37:16.225Z,-0.90
2018-02-05T06:39:43.664Z,-0.90
2018-02-05T06:42:11.115Z,-0.80
2018-02-05T06:44:38.561Z,-0.80
2018-02-05T06:47:06.778Z,-0.90
2018-02-05T06:49:34.294Z,-0.90
2018-02-05T06:52:14.540Z,-0.80
2018-02-05T06:54:53.941Z,-0.80
2018-02-05T06:57:21.383Z,-0.80
2018-02-05T06:59:48.840Z,-0.80
2018-02-05T07:02:16.282Z,-0.90
2018-02-05T07:04:43.736Z,-0.90
2018-02-05T07:07:11.185Z,-0.90
2018-02-05T07:09:38.641Z,-0.90
2018-02-05T07:12:06.090Z,-0.90
2018-02-05T07:14:34.306Z,-0.80
2018-02-05T07:17:01.821Z,-0.80
2018-02-05T07:19:30.041Z,-0.70
2018-02-05T07:21:57.496Z,-0.80
2018-02-05T07:24:24.936Z,-0.70
2018-02-05T07:26:52.379Z,-0.70
2018-02-05T07:29:19.819Z,-0.70
2018-02-05T07:31:48.045Z,-0.60
2018-02-05T07:34:15.479Z,-0.60
2018-02-05T07:36:42.938Z,-0.70
2018-02-05T07:39:10.390Z,-0.60
2018-02-05T07:41:37.833Z,-0.60
2018-02-05T07:44:06.060Z,-0.70
2018-02-05T07:46:33.513Z,-0.70
2018-02-05T07:49:00.964Z,-0.60
2018-02-05T07:51:28.516Z,-0.50
2018-02-05T07:53:55.951Z,-0.50
2018-02-05T07:56:23.413Z,-0.50
2018-02-05T07:58:50.853Z,-0.40
2018-02-05T08:01:19.065Z,-0.30
2018-02-05T08:03:46.515Z,-0.30
2018-02-05T08:06:13.961Z,-0.20
2018-02-05T08:08:41.413Z,-0.10
2018-02-05T08:11:08.843Z,-0.20
2018-02-05T08:13:37.066Z,-0.10
2018-02-05T08:16:04.525Z,-0.10
2018-02-05T08:18:31.961Z,0.00
2018-02-05T08:20:59.387Z,0.00
2018-02-05T08:23:27.596Z,0.10
2018-02-05T08:25:55.028Z,0.00
2018-02-05T08:28:23.249Z,0.10
2018-02-05T08:30:50.694Z,0.10
2018-02-05T08:33:18.129Z,0.10
2018-02-05T08:35:45.565Z,0.10
2018-02-05T08:38:13.044Z,0.10
2018-02-05T08:40:41.254Z,0.20
2018-02-05T08:43:08.706Z,0.20
2018-02-05T08:45:36.136Z,0.30
2018-02-05T08:48:03.570Z,0.30
2018-02-05T08:50:31.780Z,0.50
2018-02-05T08:52:59.225Z,0.50
2018-02-05T08:55:27.426Z,0.60
2018-02-05T08:57:54.870Z,0.60
2018-02-05T09:00:22.305Z,0.60
2018-02-05T09:02:50.516Z,0.60
2018-02-05T09:05:17.948Z,0.60
2018-02-05T09:07:45.396Z,0.60
2018-02-05T09:10:13.603Z,0.60
2018-02-05T09:12:41.036Z,0.50
2018-02-05T09:15:08.481Z,0.70
2018-02-05T09:17:36.695Z,0.60
2018-02-05T09:20:04.140Z,0.60
2018-02-05T09:22:31.574Z,0.60
2018-02-05T09:24:59.779Z,0.60
2018-02-05T09:27:27.223Z,0.60
2018-02-05T09:29:54.664Z,0.70
2018-02-05T09:32:22.871Z,0.80
2018-02-05T09:34:50.304Z,0.80
2018-02-05T09:37:18.509Z,0.90
2018-02-05T09:39:45.943Z,0.90
2018-02-05T09:42:13.389Z,0.90
2018-02-05T09:44:40.833Z,1.10
2018-02-05T09:47:09.047Z,1.50
2018-02-05T09:49:36.490Z,1.50
2018-02-05T09:52:03.938Z,1.50
2018-02-05T09:54:31.364Z,1.60
2018-02-05T09:56:58.805Z,1.60
2018-02-05T09:59:26.254Z,1.70
2018-02-05T10:01:53.700Z,1.80
2018-02-05T10:04:21.920Z,1.80
2018-02-05T10:06:50.161Z,1.90
2018-02-05T10:09:17.702Z,1.90
2018-02-05T10:11:45.092Z,2.00
2018-02-05T10:14:12.536Z,2.10
2018-02-05T10:16:40.761Z,2.40
2018-02-05T10:19:08.196Z,2.40
2018-02-05T10:21:36.401Z,4.00
2018-02-05T10:24:03.833Z,4.00
2018-02-05T10:26:32.055Z,5.90
2018-02-05T10:28:59.488Z,5.90
2018-02-05T10:31:26.933Z,6.20
2018-02-05T10:33:55.140Z,5.90
2018-02-05T10:36:22.593Z,5.90
2018-02-05T10:38:50.021Z,6.50
2018-02-05T10:41:18.219Z,8.00
2018-02-05T10:43:45.658Z,7.90
2018-02-05T10:46:13.864Z,9.20
2018-02-05T10:48:41.299Z,9.10
2018-02-05T10:51:09.512Z,10.20
2018-02-05T10:53:36.961Z,10.20
2018-02-05T10:56:04.391Z,9.40
2018-02-05T10:58:31.842Z,9.50
2018-02-05T11:00:59.272Z,9.90
2018-02-05T11:03:26.710Z,9.50
2018-02-05T11:05:54.148Z,10.50
2018-02-05T11:08:22.584Z,10.50
2018-02-05T11:10:50.791Z,11.80
2018-02-05T11:13:18.241Z,11.80
2018-02-05T11:15:45.673Z,12.20
2018-02-05T11:18:13.880Z,10.70
2018-02-05T11:20:41.318Z,10.70
2018-02-05T11:23:08.758Z,10.50
2018-02-05T11:25:37.017Z,10.60
2018-02-05T11:28:04.464Z,10.60
2018-02-05T11:30:31.905Z,10.20
2018-02-05T11:32:59.348Z,10.10
2018-02-05T11:35:26.790Z,8.40
2018-02-05T11:37:54.221Z,8.70
2018-02-05T11:40:22.464Z,6.80
2018-02-05T11:42:49.874Z,6.70
2018-02-05T11:45:17.309Z,6.30
2018-02-05T11:47:45.502Z,5.40
2018-02-05T11:50:13.984Z,5.40
2018-02-05T11:52:41.440Z,5.20
2018-02-05T11:55:08.888Z,5.10
2018-02-05T11:57:36.398Z,5.00
2018-02-05T12:00:03.843Z,4.90
2018-02-05T12:02:31.294Z,4.80
2018-02-05T12:04:58.737Z,4.80
2018-02-05T12:07:26.200Z,4.70
2018-02-05T12:09:53.625Z,4.60
2018-02-05T12:12:21.819Z,4.70
2018-02-05T12:14:49.263Z,4.70
2018-02-05T12:17:17.539Z,4.60
2018-02-05T12:19:45.723Z,4.60
2018-02-05T12:22:13.168Z,4.60
2018-02-05T12:24:41.373Z,4.60
2018-02-05T12:27:08.799Z,4.50
2018-02-05T12:29:37.064Z,4.60
2018-02-05T12:32:05.279Z,4.50
2018-02-05T12:34:32.704Z,4.50
2018-02-05T12:37:00.150Z,4.40
2018-02-05T12:39:28.340Z,4.50
2018-02-05T12:41:56.623Z,4.50
2018-02-05T12:44:24.062Z,4.60
2018-02-05T12:46:52.278Z,4.50
2018-02-05T12:49:19.702Z,4.50
2018-02-05T12:51:47.908Z,4.40
2018-02-05T12:54:15.374Z,4.40
2018-02-05T12:56:42.801Z,4.40
2018-02-05T12:59:10.239Z,4.40
2018-02-05T13:04:46.559Z,4.50
2018-02-05T13:07:13.991Z,4.50
2018-02-05T13:09:42.257Z,4.40
2018-02-05T13:12:10.468Z,4.40
2018-02-05T13:14:37.906Z,4.40
2018-02-05T13:17:08.148Z,4.50
2018-02-05T13:19:35.574Z,4.40
2018-02-05T13:22:03.772Z,4.60
2018-02-05T13:24:46.842Z,4.60
2018-02-05T13:27:14.331Z,4.60
2018-02-05T13:29:42.623Z,4.60
2018-02-05T13:32:10.949Z,4.60
2018-02-05T13:34:38.405Z,4.60
2018-02-05T13:37:05.835Z,4.50
2018-02-05T13:39:33.272Z,4.60
2018-02-05T13:42:00.702Z,4.60
2018-02-05T13:44:28.168Z,4.60
2018-02-05T13:46:56.388Z,4.60
2018-02-05T13:49:23.839Z,4.60
2018-02-05T13:51:51.274Z,4.60
2018-02-05T13:54:18.718Z,4.50
2018-02-05T13:56:46.913Z,4.50
2018-02-05T13:59:14.354Z,4.40
2018-02-05T14:01:42.552Z,4.40
2018-02-05T14:04:11.001Z,4.40
2018-02-05T14:06:39.218Z,4.40
2018-02-05T14:09:06.633Z,4.40
2018-02-05T14:11:34.828Z,4.40
2018-02-05T14:14:02.296Z,4.40
2018-02-05T14:16:29.716Z,4.40
2018-02-05T14:19:14.750Z,4.50
2018-02-05T14:21:42.243Z,4.50
2018-02-05T14:24:10.457Z,4.40
2018-02-05T14:26:37.882Z,4.40
2018-02-05T14:29:06.095Z,4.50
2018-02-05T14:31:33.544Z,4.50
2018-02-05T14:34:00.987Z,4.50
2018-02-05T14:36:28.433Z,4.50
2018-02-05T14:38:56.647Z,4.40
2018-02-05T14:41:26.114Z,4.40
2018-02-05T14:43:54.322Z,4.40
2018-02-05T14:46:21.773Z,4.40
2018-02-05T14:48:49.201Z,4.40
2018-02-05T14:51:17.484Z,4.40
2018-02-05T14:53:45.692Z,4.40
2018-02-05T14:56:13.143Z,4.40
2018-02-05T14:58:40.591Z,4.40
2018-02-05T15:01:08.037Z,4.40
2018-02-05T15:03:35.493Z,4.30
2018-02-05T15:06:03.689Z,4.30
2018-02-05T15:08:31.133Z,4.30
2018-02-05T15:11:00.610Z,4.30
2018-02-05T15:13:28.877Z,4.20
2018-02-05T15:15:56.314Z,4.20
2018-02-05T15:18:23.769Z,4.10
2018-02-05T15:20:51.966Z,4.00
2018-02-05T15:23:19.456Z,4.00
2018-02-05T15:25:46.894Z,3.90
2018-02-05T15:28:15.106Z,3.90
2018-02-05T15:30:43.549Z,3.90
2018-02-05T15:33:11.837Z,4.10
2018-02-05T15:35:46.284Z,4.00
2018-02-05T15:38:13.755Z,4.00
2018-02-05T15:40:41.266Z,4.00
2018-02-05T15:43:09.463Z,3.90
2018-02-05T15:45:36.909Z,3.80
2018-02-05T15:48:04.362Z,3.70
2018-02-05T15:50:32.572Z,3.70
2018-02-05T15:53:00.016Z,3.70
2018-02-05T15:55:27.463Z,3.70
2018-02-05T15:57:54.900Z,3.70
2018-02-05T16:00:23.108Z,3.50
2018-02-05T16:02:50.629Z,3.50
2018-02-05T16:05:18.838Z,3.50
2018-02-05T16:07:46.370Z,3.40
2018-02-05T16:10:14.586Z,3.40
2018-02-05T16:12:42.036Z,3.30
2018-02-05T16:15:09.464Z,3.40
2018-02-05T16:17:37.732Z,3.30
2018-02-05T16:20:05.945Z,3.30
2018-02-05T16:22:33.388Z,3.30
2018-02-05T16:25:00.820Z,3.30
2018-02-05T16:27:29.208Z,3.30
2018-02-05T16:29:56.673Z,3.30
2018-02-05T16:32:24.099Z,3.20
2018-02-05T16:34:52.296Z,3.10
2018-02-05T16:37:20.511Z,3.10
2018-02-05T16:39:47.955Z,3.10
2018-02-05T16:42:15.400Z,3.10
2018-02-05T16:44:42.850Z,3.10
2018-02-05T16:47:12.133Z,2.90
2018-02-05T16:49:40.357Z,2.80
2018-02-05T16:52:07.794Z,2.80
2018-02-05T16:54:35.255Z,2.90
2018-02-05T16:57:02.707Z,2.80
2018-02-05T16:59:30.156Z,2.80
2018-02-05T17:01:57.611Z,2.70
2018-02-05T17:04:25.040Z,2.70
2018-02-05T17:06:52.485Z,2.60
2018-02-05T17:09:19.925Z,2.60
2018-02-05T17:11:47.421Z,2.50
2018-02-05T17:14:14.867Z,2.60
2018-02-05T17:16:42.337Z,2.60
2018-02-05T17:19:09.801Z,2.50
2018-02-05T17:21:38.012Z,2.50
2018-02-05T17:24:09.716Z,2.50
2018-02-05T17:26:37.164Z,2.40
2018-02-05T17:29:04.616Z,2.30
2018-02-05T17:31:32.045Z,2.30
2018-02-05T17:33:59.509Z,2.30
2018-02-05T17:36:26.937Z,2.20
2018-02-05T17:38:54.379Z,2.10
2018-02-05T17:41:21.822Z,2.10
2018-02-05T17:43:50.025Z,2.00
2018-02-05T17:46:17.468Z,2.00
2018-02-05T17:48:45.679Z,1.90
2018-02-05T17:51:13.118Z,1.80
2018-02-05T17:53:40.638Z,1.80
2018-02-05T17:56:08.072Z,1.70
2018-02-05T17:58:35.537Z,1.70
2018-02-05T18:01:03.773Z,1.70
2018-02-05T18:03:31.233Z,1.70
2018-02-05T18:05:58.672Z,1.70
2018-02-05T18:08:28.151Z,1.70
2018-02-05T18:10:58.421Z,1.50
2018-02-05T18:13:25.855Z,1.50
2018-02-05T18:15:53.300Z,1.60
2018-02-05T18:18:21.556Z,1.60
2018-02-05T18:20:49.011Z,1.60
2018-02-05T18:23:16.467Z,1.50
2018-02-05T18:25:43.888Z,1.40
2018-02-05T18:28:11.351Z,1.40
2018-02-05T18:30:38.805Z,1.40
2018-02-05T18:33:06.270Z,1.30
2018-02-05T18:35:33.712Z,1.20
2018-02-05T18:38:01.161Z,1.20
2018-02-05T18:40:28.592Z,1.00
2018-02-05T18:42:56.813Z,0.90
2018-02-05T18:45:24.244Z,0.90
2018-02-05T18:47:51.688Z,0.90
2018-02-05T18:50:19.130Z,0.90
2018-02-05T18:52:47.344Z,0.90
2018-02-05T18:55:14.784Z,0.90
2018-02-05T18:57:42.232Z,0.90
2018-02-05T19:00:21.436Z,0.90
2018-02-05T19:02:48.881Z,0.90
2018-02-05T19:05:16.329Z,0.90
2018-02-05T19:07:43.837Z,0.90
2018-02-05T19:10:12.047Z,0.80
2018-02-05T19:12:39.546Z,0.80
2018-02-05T19:15:06.943Z,0.70
2018-02-05T19:17:34.377Z,0.70
2018-02-05T19:20:02.593Z,0.70
2018-02-05T19:22:30.045Z,0.70
2018-02-05T19:24:57.508Z,0.70
2018-02-05T19:27:29.834Z,0.70
2018-02-05T19:29:58.050Z,0.80
2018-02-05T19:32:25.490Z,0.80
2018-02-05T19:34:53.258Z,0.70
2018-02-05T19:37:21.123Z,0.70
2018-02-05T19:39:48.575Z,0.60
2018-02-05T19:42:16.210Z,0.60
2018-02-05T19:44:43.693Z,0.60
2018-02-05T19:47:11.134Z,0.50
2018-02-05T19:49:38.652Z,0.40
2018-02-05T19:52:06.112Z,0.40
2018-02-05T19:54:35.571Z,0.30
2018-02-05T19:57:03.013Z,0.30
2018-02-05T19:59:31.239Z,0.30
2018-02-05T20:01:58.698Z,0.30
2018-02-05T20:04:26.241Z,0.30
2018-02-05T20:06:53.677Z,0.30
2018-02-05T20:09:21.167Z,0.40
2018-02-05T20:11:48.684Z,0.40
2018-02-05T20:14:16.970Z,0.40
2018-02-05T20:16:44.413Z,0.40
2018-02-05T20:19:15.765Z,0.30
2018-02-05T20:21:44.047Z,0.20
2018-02-05T20:24:12.325Z,0.10
2018-02-05T20:26:39.792Z,0.10
2018-02-05T20:29:07.266Z,0.10
2018-02-05T20:31:34.757Z,0.10
2018-02-05T20:34:02.220Z,0.10
2018-02-05T20:36:29.707Z,0.10
2018-02-05T20:38:57.911Z,0.00
2018-02-05T20:41:25.363Z,0.00
2018-02-05T20:43:52.923Z,0.00
2018-02-05T20:46:20.364Z,0.00
2018-02-05T20:48:47.805Z,-0.10
2018-02-05T20:51:17.114Z,0.00
2018-02-05T20:53:45.390Z,0.00
2018-02-05T20:56:13.738Z,0.00
2018-02-05T20:58:41.184Z,0.00
2018-02-05T21:01:08.681Z,0.00
2018-02-05T21:03:36.925Z,0.00
2018-02-05T21:06:04.369Z,0.00
2018-02-05T21:08:31.878Z,0.00
2018-02-05T21:10:59.733Z,0.00
2018-02-05T21:13:27.957Z,-0.10
2018-02-05T21:15:55.451Z,-0.10
2018-02-05T21:18:22.897Z,0.00
2018-02-05T21:20:50.524Z,0.00
2018-02-05T21:23:18.056Z,0.00
2018-02-05T21:25:46.269Z,-0.10
2018-02-05T21:28:13.773Z,-0.10
2018-02-05T21:30:41.985Z,-0.10
2018-02-05T21:33:09.422Z,-0.10
2018-02-05T21:35:36.880Z,-0.10
2018-02-05T21:38:04.528Z,-0.10
2018-02-05T21:40:31.973Z,-0.10
2018-02-05T21:42:59.499Z,-0.10
2018-02-05T21:45:26.987Z,-0.20
2018-02-05T21:47:54.416Z,-0.10
2018-02-05T21:50:21.881Z,-0.10
2018-02-05T21:52:49.465Z,-0.10
2018-02-05T21:55:16.918Z,-0.10
2018-02-05T21:57:44.368Z,0.00
2018-02-05T22:00:12.000Z,0.10
2018-02-05T22:02:39.507Z,0.10
2018-02-05T22:05:06.951Z,0.30
2018-02-05T22:07:34.396Z,0.30
2018-02-05T22:10:01.855Z,0.30
2018-02-05T22:12:29.320Z,0.20
2018-02-05T22:14:56.753Z,0.20
2018-02-05T22:17:24.214Z,0.20
2018-02-05T22:19:51.702Z,0.20
2018-02-05T22:22:19.919Z,0.10
2018-02-05T22:24:47.350Z,0.10
2018-02-05T22:27:15.564Z,0.20
2018-02-05T22:29:43.007Z,0.20
2018-02-05T22:32:10.447Z,0.20
2018-02-05T22:34:37.872Z,0.20
2018-02-05T22:37:05.317Z,0.20
2018-02-05T22:39:32.756Z,0.30
2018-02-05T22:42:00.198Z,0.40
2018-02-05T22:44:27.687Z,0.40
2018-02-05T22:46:55.189Z,0.30
2018-02-05T22:49:22.655Z,0.20
2018-02-05T22:51:50.144Z,0.20
2018-02-05T22:54:17.594Z,0.20
2018-02-05T22:56:45.116Z,0.20
2018-02-05T22:59:13.329Z,0.10
2018-02-05T23:01:40.764Z,0.10
2018-02-05T23:04:08.457Z,0.10
2018-02-05T23:06:35.956Z,0.10
2018-02-05T23:09:04.176Z,0.00
2018-02-05T23:11:31.605Z,0.00
2018-02-05T23:13:59.052Z,0.00
2018-02-05T23:16:27.258Z,0.00
2018-02-05T23:18:54.707Z,0.00
2018-02-05T23:21:22.147Z,0.00
2018-02-05T23:23:50.356Z,0.00
2018-02-05T23:26:17.799Z,0.00
2018-02-05T23:28:45.227Z,0.10
2018-02-05T23:31:13.444Z,0.00
2018-02-05T23:33:40.884Z,0.00
2018-02-05T23:36:08.328Z,0.00
2018-02-05T23:38:36.799Z,0.10
2018-02-05T23:41:05.002Z,0.10
2018-02-05T23:43:32.477Z,0.10
2018-02-05T23:45:59.904Z,0.10
2018-02-05T23:48:27.337Z,0.00
2018-02-05T23:50:55.555Z,-0.10
2018-02-05T23:53:22.990Z,-0.10
2018-02-05T23:55:50.429Z,0.00
2018-02-05T23:58:18.634Z,0.00
